»·PEaware :: N2442P KLAS-KPSP

N2442P :: KLAS-KPSP

FLIGHT INFORMATION

Flight Status: Arrived
Operator: Privately registered:
United States
More flights under this callsign
Pilot: Ken Q. (14290)
Aircraft: MOONEY M-20K/M ENCORE BRAVO
(M20T)
More flights by this aircraft type
Origin: KLAS Harry Reid Intl
United States
Destination: KPSP Palm Springs Intl
United States
More flights between these airports :: More routes between these airports
Route: GFS JOTNI TNP
File this flight plan on PilotEdge
Remarks:
Altitude:
(Current/Filed)
10,500ft
Speed:
(Current/Filed)
175kts
Departed: 15-May-22 12:40 PM
Arrived: 15-May-22 01:48 PM
Distance/Time
Traveled:
151nm/1:08
Distance/Time
To Go:
Arrived

Flight Plot

Page will automatically refresh every two minutes.

Flight plan parsing failed; only flown route is shown


Map Options




Map Legend


Flown Route
Filed Route
Departure Airport
Arrival Airport
Navaid (VOR, NDB)
Fix

Horizontal Profiles

Position Reports

Time Latitude Longitude Heading Altitude Ground
Speed
15-May-22 11:58 36.080361 -115.170639 271 2118ft 0kts
15-May-22 11:59 36.080361 -115.170639 271 2118ft 0kts
15-May-22 12:00 36.080361 -115.170639 271 2118ft 0kts
15-May-22 12:01 36.080361 -115.170639 271 2118ft 0kts
15-May-22 12:02 36.080361 -115.170639 271 2118ft 0kts
15-May-22 12:03 36.080361 -115.170639 271 2118ft 0kts
15-May-22 12:04 36.080361 -115.170639 271 2118ft 0kts
15-May-22 12:05 36.080361 -115.170639 271 2118ft 0kts
15-May-22 12:06 36.080361 -115.170639 271 2118ft 0kts
15-May-22 12:07 36.080361 -115.170639 271 2118ft 0kts
15-May-22 12:08 36.080361 -115.170639 271 2118ft 0kts
15-May-22 12:09 36.080361 -115.170639 271 2118ft 0kts
15-May-22 12:10 36.080361 -115.170639 271 2118ft 0kts
15-May-22 12:11 36.080361 -115.170639 271 2118ft 0kts
15-May-22 12:12 36.080361 -115.170639 271 2118ft 0kts
15-May-22 12:13 36.080361 -115.170639 271 2118ft 0kts
15-May-22 12:14 36.080361 -115.170639 271 2118ft 0kts
15-May-22 12:15 36.080361 -115.170639 271 2118ft 0kts
15-May-22 12:16 36.080361 -115.170640 271 2118ft 0kts
15-May-22 12:17 36.080361 -115.170640 271 2118ft 0kts
15-May-22 12:18 36.080361 -115.170640 271 2118ft 0kts
15-May-22 12:19 36.080361 -115.170641 271 2118ft 0kts
15-May-22 12:20 36.080361 -115.170641 271 2118ft 0kts
15-May-22 12:21 36.080361 -115.170641 271 2118ft 0kts
15-May-22 12:22 36.080361 -115.170642 271 2118ft 0kts
15-May-22 12:23 36.080361 -115.170642 271 2118ft 0kts
15-May-22 12:24 36.080361 -115.170642 271 2118ft 0kts
15-May-22 12:25 36.080361 -115.170643 271 2118ft 0kts
15-May-22 12:26 36.080361 -115.170643 271 2118ft 0kts
15-May-22 12:27 36.080361 -115.170643 271 2118ft 0kts
15-May-22 12:28 36.080361 -115.170644 271 2118ft 0kts
15-May-22 12:29 36.080361 -115.170644 271 2118ft 0kts
15-May-22 12:30 36.080361 -115.170644 271 2118ft 0kts
15-May-22 12:31 36.080361 -115.170645 271 2118ft 0kts
15-May-22 12:32 36.080375 -115.170697 293 2118ft 2kts
15-May-22 12:33 36.081554 -115.169542 61 2118ft 9kts
15-May-22 12:34 36.087532 -115.165806 24 2118ft 33kts
15-May-22 12:35 36.093136 -115.162586 24 2118ft 25kts
15-May-22 12:36 36.099489 -115.158733 67 2118ft 10kts
15-May-22 12:37 36.099817 -115.157628 82 2118ft 0kts
15-May-22 12:38 36.099228 -115.156713 211 2118ft 12kts
15-May-22 12:39 36.083051 -115.165669 203 2246ft 102kts
15-May-22 12:40 36.055028 -115.173100 185 3035ft 102kts
15-May-22 12:41 36.026051 -115.176586 200 3426ft 129kts
15-May-22 12:42 35.984397 -115.184104 186 3366ft 164kts
15-May-22 12:43 35.943605 -115.189085 185 4189ft 128kts
15-May-22 12:44 35.911779 -115.193138 185 5093ft 103kts
15-May-22 12:45 35.883425 -115.196790 185 6131ft 106kts
15-May-22 12:46 35.852536 -115.201225 184 7023ft 124kts
15-May-22 12:47 35.817546 -115.188452 161 7624ft 129kts
15-May-22 12:48 35.780163 -115.172533 161 7653ft 164kts
15-May-22 12:49 35.736972 -115.164112 180 7957ft 160kts
15-May-22 12:50 35.693230 -115.164641 180 8348ft 151kts
15-May-22 12:51 35.652684 -115.165239 180 8934ft 142kts
15-May-22 12:52 35.614144 -115.165894 180 9493ft 133kts
15-May-22 12:53 35.578300 -115.166508 180 10087ft 124kts
15-May-22 12:54 35.544608 -115.167016 180 10626ft 123kts
15-May-22 12:55 35.506235 -115.167474 180 10588ft 155kts
15-May-22 12:56 35.461600 -115.167992 180 10584ft 162kts
15-May-22 12:57 35.416745 -115.168452 180 10581ft 166kts
15-May-22 12:58 35.369429 -115.168907 180 10562ft 171kts
15-May-22 12:59 35.321461 -115.169320 180 10573ft 176kts
15-May-22 13:00 35.272654 -115.178341 191 10570ft 181kts
15-May-22 13:01 35.223825 -115.191641 192 10578ft 178kts
15-May-22 13:02 35.175066 -115.205268 192 10557ft 184kts
15-May-22 13:03 35.125037 -115.215959 184 10549ft 185kts
15-May-22 13:04 35.074709 -115.227903 192 10533ft 187kts
15-May-22 13:05 35.024864 -115.241697 192 10544ft 183kts
15-May-22 13:06 34.975451 -115.256573 193 10537ft 185kts
15-May-22 13:07 34.925604 -115.271238 193 10514ft 186kts
15-May-22 13:08 34.877662 -115.288951 201 10514ft 175kts
15-May-22 13:09 34.833111 -115.310808 201 10524ft 171kts
15-May-22 13:10 34.788443 -115.330783 199 10522ft 171kts
15-May-22 13:11 34.743736 -115.350212 199 10554ft 173kts
15-May-22 13:12 34.695958 -115.370867 199 10536ft 187kts
15-May-22 13:13 34.647286 -115.391795 199 10424ft 185kts
15-May-22 13:14 34.600280 -115.411944 199 10421ft 174kts
15-May-22 13:15 34.555203 -115.431173 199 10427ft 170kts
15-May-22 13:16 34.510468 -115.450174 199 10431ft 170kts
15-May-22 13:17 34.465800 -115.469034 199 10437ft 171kts
15-May-22 13:18 34.420013 -115.488272 199 10444ft 181kts
15-May-22 13:19 34.373039 -115.507964 199 10440ft 173kts
15-May-22 13:20 34.327578 -115.526965 201 10447ft 174kts
15-May-22 13:21 34.288875 -115.561480 221 10452ft 174kts
15-May-22 13:22 34.252454 -115.601505 221 10427ft 182kts
15-May-22 13:23 34.215543 -115.641971 221 10423ft 173kts
15-May-22 13:24 34.179578 -115.681327 221 10432ft 181kts
15-May-22 13:25 34.143990 -115.723071 224 10429ft 173kts
15-May-22 13:26 34.113305 -115.767663 245 10436ft 180kts
15-May-22 13:27 34.096033 -115.825433 248 10054ft 193kts
15-May-22 13:28 34.078014 -115.886517 248 9420ft 190kts
15-May-22 13:29 34.059059 -115.945006 245 8840ft 190kts
15-May-22 13:30 34.037780 -116.002203 241 8440ft 183kts
15-May-22 13:31 34.015920 -116.054664 241 8547ft 166kts
15-May-22 13:32 33.995250 -116.104373 241 8554ft 170kts
15-May-22 13:33 33.972467 -116.158632 241 8006ft 192kts
15-May-22 13:34 33.948514 -116.215250 241 7285ft 198kts
15-May-22 13:35 33.926074 -116.273951 245 6601ft 180kts
15-May-22 13:36 33.909950 -116.320558 245 6011ft 140kts
15-May-22 13:37 33.895476 -116.364804 249 5175ft 146kts
15-May-22 13:38 33.888557 -116.414525 255 4325ft 155kts
15-May-22 13:39 33.873652 -116.457816 209 3342ft 131kts
15-May-22 13:40 33.841444 -116.445121 148 2474ft 141kts
15-May-22 13:41 33.808846 -116.420873 149 1639ft 127kts
15-May-22 13:42 33.785114 -116.417001 250 1373ft 84kts
15-May-22 13:43 33.776243 -116.449408 264 1209ft 110kts
15-May-22 13:44 33.793122 -116.469530 318 1200ft 78kts
15-May-22 13:45 33.810017 -116.487162 322 872ft 78kts
15-May-22 13:46 33.826566 -116.502002 321 481ft 63kts
15-May-22 13:47 33.831198 -116.506891 235 480ft 0kts
15-May-22 13:48 33.828673 -116.507242 180 480ft 24kts
15-May-22 13:49 33.825372 -116.508565 285 480ft 11kts
15-May-22 13:50 33.826414 -116.509269 270 480ft 0kts
15-May-22 13:51 33.826422 -116.509335 278 480ft 0kts
15-May-22 13:52 33.826422 -116.509335 278 480ft 0kts
15-May-22 13:53 33.826422 -116.509335 278 480ft 0kts
15-May-22 13:54 33.826422 -116.509335 278 480ft 0kts

Navigation Log

Ident Type
Flight plan parsing failed, navigation log unavailable